<?xml version="1.0" encoding="UTF-8" standalone="no" ?>
<gpx xmlns="http://www.topografix.com/GPX/1/1" xmlns:xsi="http://www.w3.org/2001/XMLSchema-instance" xsi:schemaLocation="http://www.topografix.com/GPX/1/1 http://www.topografix.com/GPX/1/1/gpx.xsd" version="1.1" creator="VisuGPX - https://www.visugpx.com">
  <metadata>
    <name>Chuzelles 200902</name>
  </metadata>
  <trk>
    <name><![CDATA[Chuzelles 200902]]></name>
    <trkseg>
      <trkpt lat="45.72701" lon="4.85593">
        <ele>175.2843248</ele>
        <time>2020-09-02T14:37:02Z</time>
      </trkpt>
      <trkpt lat="45.72709" lon="4.85584">
        <ele>175.2498528</ele>
        <time>2020-09-02T14:37:31Z</time>
      </trkpt>
      <trkpt lat="45.72792" lon="4.85639">
        <ele>173.5187878</ele>
        <time>2020-09-02T14:38:05Z</time>
      </trkpt>
      <trkpt lat="45.72798" lon="4.85713">
        <ele>174.0866829</ele>
        <time>2020-09-02T14:38:17Z</time>
      </trkpt>
      <trkpt lat="45.72785" lon="4.85738">
        <ele>174.441999</ele>
        <time>2020-09-02T14:38:21Z</time>
      </trkpt>
      <trkpt lat="45.72279" lon="4.85889">
        <ele>176.6492107</ele>
        <time>2020-09-02T14:39:38Z</time>
      </trkpt>
      <trkpt lat="45.72352" lon="4.86509">
        <ele>177.9004043</ele>
        <time>2020-09-02T14:40:42Z</time>
      </trkpt>
      <trkpt lat="45.71989" lon="4.86811">
        <ele>180.0670041</ele>
        <time>2020-09-02T14:41:40Z</time>
      </trkpt>
      <trkpt lat="45.71894" lon="4.86871">
        <ele>182.6356004</ele>
        <time>2020-09-02T14:42:12Z</time>
      </trkpt>
      <trkpt lat="45.71707" lon="4.87051">
        <ele>183.1008917</ele>
        <time>2020-09-02T14:42:41Z</time>
      </trkpt>
      <trkpt lat="45.71205" lon="4.87475">
        <ele>183.6576551</ele>
        <time>2020-09-02T14:44:25Z</time>
      </trkpt>
      <trkpt lat="45.71369" lon="4.87819">
        <ele>184.9794397</ele>
        <time>2020-09-02T14:45:07Z</time>
      </trkpt>
      <trkpt lat="45.71219" lon="4.88021">
        <ele>186.1770396</ele>
        <time>2020-09-02T14:45:34Z</time>
      </trkpt>
      <trkpt lat="45.71175" lon="4.88119">
        <ele>185.7082254</ele>
        <time>2020-09-02T14:45:50Z</time>
      </trkpt>
      <trkpt lat="45.71079" lon="4.88238">
        <ele>186.6325224</ele>
        <time>2020-09-02T14:46:32Z</time>
      </trkpt>
      <trkpt lat="45.70806" lon="4.88698">
        <ele>190.3869746</ele>
        <time>2020-09-02T14:47:23Z</time>
      </trkpt>
      <trkpt lat="45.70686" lon="4.88745">
        <ele>192.5680403</ele>
        <time>2020-09-02T14:47:39Z</time>
      </trkpt>
      <trkpt lat="45.69328" lon="4.88753">
        <ele>202.4934302</ele>
        <time>2020-09-02T14:50:49Z</time>
      </trkpt>
      <trkpt lat="45.69221" lon="4.88723">
        <ele>207.9508798</ele>
        <time>2020-09-02T14:51:05Z</time>
      </trkpt>
      <trkpt lat="45.69151" lon="4.88658">
        <ele>209.0978617</ele>
        <time>2020-09-02T14:51:19Z</time>
      </trkpt>
      <trkpt lat="45.69124" lon="4.88665">
        <ele>209.3055608</ele>
        <time>2020-09-02T14:51:23Z</time>
      </trkpt>
      <trkpt lat="45.68973" lon="4.88591">
        <ele>210.7818143</ele>
        <time>2020-09-02T14:51:45Z</time>
      </trkpt>
      <trkpt lat="45.68808" lon="4.88558">
        <ele>211.7006207</ele>
        <time>2020-09-02T14:52:09Z</time>
      </trkpt>
      <trkpt lat="45.68759" lon="4.88533">
        <ele>211.0530743</ele>
        <time>2020-09-02T14:52:17Z</time>
      </trkpt>
      <trkpt lat="45.68746" lon="4.88567">
        <ele>211.7564228</ele>
        <time>2020-09-02T14:52:21Z</time>
      </trkpt>
      <trkpt lat="45.6878" lon="4.88667">
        <ele>212.6968089</ele>
        <time>2020-09-02T14:52:31Z</time>
      </trkpt>
      <trkpt lat="45.68824" lon="4.89124">
        <ele>209.9224001</ele>
        <time>2020-09-02T14:53:10Z</time>
      </trkpt>
      <trkpt lat="45.68627" lon="4.89189">
        <ele>213.5880675</ele>
        <time>2020-09-02T14:53:42Z</time>
      </trkpt>
      <trkpt lat="45.68475" lon="4.8933">
        <ele>208.6170788</ele>
        <time>2020-09-02T14:54:03Z</time>
      </trkpt>
      <trkpt lat="45.68023" lon="4.89449">
        <ele>206.9408268</ele>
        <time>2020-09-02T14:54:47Z</time>
      </trkpt>
      <trkpt lat="45.67681" lon="4.89602">
        <ele>207.4451972</ele>
        <time>2020-09-02T14:55:30Z</time>
      </trkpt>
      <trkpt lat="45.67659" lon="4.89709">
        <ele>209.2226314</ele>
        <time>2020-09-02T14:55:44Z</time>
      </trkpt>
      <trkpt lat="45.67567" lon="4.89889">
        <ele>211.1049142</ele>
        <time>2020-09-02T14:56:06Z</time>
      </trkpt>
      <trkpt lat="45.67433" lon="4.89879">
        <ele>214.5655799</ele>
        <time>2020-09-02T14:56:24Z</time>
      </trkpt>
      <trkpt lat="45.67353" lon="4.89846">
        <ele>217.2208288</ele>
        <time>2020-09-02T14:56:36Z</time>
      </trkpt>
      <trkpt lat="45.67135" lon="4.89856">
        <ele>209.8372197</ele>
        <time>2020-09-02T14:57:12Z</time>
      </trkpt>
      <trkpt lat="45.67026" lon="4.89831">
        <ele>205.1744127</ele>
        <time>2020-09-02T14:57:32Z</time>
      </trkpt>
      <trkpt lat="45.66632" lon="4.89896">
        <ele>198.3992625</ele>
        <time>2020-09-02T14:58:08Z</time>
      </trkpt>
      <trkpt lat="45.66422" lon="4.89998">
        <ele>197.7009617</ele>
        <time>2020-09-02T14:58:31Z</time>
      </trkpt>
      <trkpt lat="45.66307" lon="4.89998">
        <ele>197.9829875</ele>
        <time>2020-09-02T14:58:43Z</time>
      </trkpt>
      <trkpt lat="45.66114" lon="4.90063">
        <ele>196.9031226</ele>
        <time>2020-09-02T14:59:05Z</time>
      </trkpt>
      <trkpt lat="45.6593" lon="4.9006">
        <ele>195.8926397</ele>
        <time>2020-09-02T14:59:27Z</time>
      </trkpt>
      <trkpt lat="45.65287" lon="4.90658">
        <ele>199.7385415</ele>
        <time>2020-09-02T15:00:52Z</time>
      </trkpt>
      <trkpt lat="45.64891" lon="4.91">
        <ele>199.5495187</ele>
        <time>2020-09-02T15:01:42Z</time>
      </trkpt>
      <trkpt lat="45.64804" lon="4.91017">
        <ele>199.1176791</ele>
        <time>2020-09-02T15:01:51Z</time>
      </trkpt>
      <trkpt lat="45.64682" lon="4.91011">
        <ele>199.0605171</ele>
        <time>2020-09-02T15:02:05Z</time>
      </trkpt>
      <trkpt lat="45.6463" lon="4.90983">
        <ele>198.87976</ele>
        <time>2020-09-02T15:02:19Z</time>
      </trkpt>
      <trkpt lat="45.64592" lon="4.91006">
        <ele>199.0218863</ele>
        <time>2020-09-02T15:02:25Z</time>
      </trkpt>
      <trkpt lat="45.64372" lon="4.91">
        <ele>200.9145897</ele>
        <time>2020-09-02T15:02:51Z</time>
      </trkpt>
      <trkpt lat="45.64083" lon="4.90954">
        <ele>195.9669919</ele>
        <time>2020-09-02T15:03:24Z</time>
      </trkpt>
      <trkpt lat="45.64066" lon="4.91207">
        <ele>198.4491564</ele>
        <time>2020-09-02T15:03:52Z</time>
      </trkpt>
      <trkpt lat="45.63991" lon="4.91524">
        <ele>200.2669636</ele>
        <time>2020-09-02T15:04:20Z</time>
      </trkpt>
      <trkpt lat="45.63945" lon="4.91644">
        <ele>198.2712341</ele>
        <time>2020-09-02T15:04:31Z</time>
      </trkpt>
      <trkpt lat="45.63881" lon="4.91694">
        <ele>197.3214251</ele>
        <time>2020-09-02T15:04:39Z</time>
      </trkpt>
      <trkpt lat="45.63434" lon="4.91842">
        <ele>196.394104</ele>
        <time>2020-09-02T15:05:27Z</time>
      </trkpt>
      <trkpt lat="45.63267" lon="4.92139">
        <ele>197.6409052</ele>
        <time>2020-09-02T15:05:57Z</time>
      </trkpt>
      <trkpt lat="45.63127" lon="4.92268">
        <ele>199.6496944</ele>
        <time>2020-09-02T15:06:16Z</time>
      </trkpt>
      <trkpt lat="45.63032" lon="4.92391">
        <ele>201.3346235</ele>
        <time>2020-09-02T15:06:32Z</time>
      </trkpt>
      <trkpt lat="45.62985" lon="4.92511">
        <ele>202.3960523</ele>
        <time>2020-09-02T15:06:46Z</time>
      </trkpt>
      <trkpt lat="45.62861" lon="4.92556">
        <ele>204.4709456</ele>
        <time>2020-09-02T15:07:04Z</time>
      </trkpt>
      <trkpt lat="45.62684" lon="4.92675">
        <ele>209.1115731</ele>
        <time>2020-09-02T15:07:32Z</time>
      </trkpt>
      <trkpt lat="45.62729" lon="4.92823">
        <ele>210.6356624</ele>
        <time>2020-09-02T15:07:51Z</time>
      </trkpt>
      <trkpt lat="45.62719" lon="4.9284">
        <ele>210.3318665</ele>
        <time>2020-09-02T15:07:55Z</time>
      </trkpt>
      <trkpt lat="45.62616" lon="4.92851">
        <ele>213.4687132</ele>
        <time>2020-09-02T15:08:15Z</time>
      </trkpt>
      <trkpt lat="45.62604" lon="4.92839">
        <ele>213.8144925</ele>
        <time>2020-09-02T15:08:19Z</time>
      </trkpt>
      <trkpt lat="45.6217" lon="4.92017">
        <ele>219.5643273</ele>
        <time>2020-09-02T15:10:04Z</time>
      </trkpt>
      <trkpt lat="45.62079" lon="4.92105">
        <ele>225.842867</ele>
        <time>2020-09-02T15:10:34Z</time>
      </trkpt>
      <trkpt lat="45.6196" lon="4.92261">
        <ele>234.8936728</ele>
        <time>2020-09-02T15:11:13Z</time>
      </trkpt>
      <trkpt lat="45.6185" lon="4.92356">
        <ele>243.5577969</ele>
        <time>2020-09-02T15:11:51Z</time>
      </trkpt>
      <trkpt lat="45.61748" lon="4.92405">
        <ele>249.455607</ele>
        <time>2020-09-02T15:12:19Z</time>
      </trkpt>
      <trkpt lat="45.61679" lon="4.92412">
        <ele>253.0854835</ele>
        <time>2020-09-02T15:12:37Z</time>
      </trkpt>
      <trkpt lat="45.61629" lon="4.92512">
        <ele>258.301888</ele>
        <time>2020-09-02T15:13:03Z</time>
      </trkpt>
      <trkpt lat="45.61602" lon="4.92535">
        <ele>260.3088393</ele>
        <time>2020-09-02T15:13:12Z</time>
      </trkpt>
      <trkpt lat="45.61551" lon="4.92555">
        <ele>263.8159249</ele>
        <time>2020-09-02T15:13:28Z</time>
      </trkpt>
      <trkpt lat="45.61422" lon="4.92563">
        <ele>270.9138642</ele>
        <time>2020-09-02T15:14:08Z</time>
      </trkpt>
      <trkpt lat="45.61313" lon="4.92466">
        <ele>278.1948345</ele>
        <time>2020-09-02T15:14:46Z</time>
      </trkpt>
      <trkpt lat="45.61162" lon="4.92462">
        <ele>288.7099561</ele>
        <time>2020-09-02T15:15:43Z</time>
      </trkpt>
      <trkpt lat="45.61049" lon="4.92433">
        <ele>295.6020637</ele>
        <time>2020-09-02T15:16:21Z</time>
      </trkpt>
      <trkpt lat="45.61016" lon="4.92392">
        <ele>297.8219443</ele>
        <time>2020-09-02T15:16:31Z</time>
      </trkpt>
      <trkpt lat="45.60897" lon="4.9213">
        <ele>311.1929287</ele>
        <time>2020-09-02T15:17:48Z</time>
      </trkpt>
      <trkpt lat="45.60689" lon="4.91994">
        <ele>322.8708453</ele>
        <time>2020-09-02T15:18:59Z</time>
      </trkpt>
      <trkpt lat="45.60615" lon="4.92007">
        <ele>328.1737762</ele>
        <time>2020-09-02T15:19:25Z</time>
      </trkpt>
      <trkpt lat="45.60482" lon="4.92128">
        <ele>335.1818062</ele>
        <time>2020-09-02T15:20:11Z</time>
      </trkpt>
      <trkpt lat="45.60335" lon="4.92153">
        <ele>330.4146624</ele>
        <time>2020-09-02T15:20:35Z</time>
      </trkpt>
      <trkpt lat="45.60316" lon="4.92103">
        <ele>328.9614766</ele>
        <time>2020-09-02T15:20:39Z</time>
      </trkpt>
      <trkpt lat="45.60316" lon="4.9202">
        <ele>327.2433638</ele>
        <time>2020-09-02T15:20:44Z</time>
      </trkpt>
      <trkpt lat="45.6038" lon="4.91794">
        <ele>316.6756768</ele>
        <time>2020-09-02T15:20:58Z</time>
      </trkpt>
      <trkpt lat="45.60359" lon="4.91751">
        <ele>313.195509</ele>
        <time>2020-09-02T15:21:02Z</time>
      </trkpt>
      <trkpt lat="45.60297" lon="4.91803">
        <ele>309.7199854</ele>
        <time>2020-09-02T15:21:08Z</time>
      </trkpt>
      <trkpt lat="45.60086" lon="4.91879">
        <ele>296.6122508</ele>
        <time>2020-09-02T15:21:24Z</time>
      </trkpt>
      <trkpt lat="45.5997" lon="4.91779">
        <ele>289.8993508</ele>
        <time>2020-09-02T15:21:34Z</time>
      </trkpt>
      <trkpt lat="45.59838" lon="4.91604">
        <ele>280.0242593</ele>
        <time>2020-09-02T15:21:46Z</time>
      </trkpt>
      <trkpt lat="45.59725" lon="4.91628">
        <ele>274.5064818</ele>
        <time>2020-09-02T15:21:54Z</time>
      </trkpt>
      <trkpt lat="45.596" lon="4.91612">
        <ele>267.3274214</ele>
        <time>2020-09-02T15:22:02Z</time>
      </trkpt>
      <trkpt lat="45.59504" lon="4.91633">
        <ele>260.9712167</ele>
        <time>2020-09-02T15:22:08Z</time>
      </trkpt>
      <trkpt lat="45.59342" lon="4.91489">
        <ele>248.8887853</ele>
        <time>2020-09-02T15:22:20Z</time>
      </trkpt>
      <trkpt lat="45.59311" lon="4.9148">
        <ele>247.4687613</ele>
        <time>2020-09-02T15:22:22Z</time>
      </trkpt>
      <trkpt lat="45.59205" lon="4.915">
        <ele>238.8632996</ele>
        <time>2020-09-02T15:22:30Z</time>
      </trkpt>
      <trkpt lat="45.59141" lon="4.91552">
        <ele>234.607901</ele>
        <time>2020-09-02T15:22:38Z</time>
      </trkpt>
      <trkpt lat="45.58927" lon="4.91468">
        <ele>224.2329078</ele>
        <time>2020-09-02T15:23:01Z</time>
      </trkpt>
      <trkpt lat="45.58816" lon="4.9145">
        <ele>219.0232867</ele>
        <time>2020-09-02T15:23:15Z</time>
      </trkpt>
      <trkpt lat="45.58696" lon="4.91387">
        <ele>217.2138499</ele>
        <time>2020-09-02T15:23:39Z</time>
      </trkpt>
      <trkpt lat="45.58556" lon="4.91412">
        <ele>214.2604745</ele>
        <time>2020-09-02T15:23:59Z</time>
      </trkpt>
      <trkpt lat="45.58538" lon="4.91382">
        <ele>215.5519069</ele>
        <time>2020-09-02T15:24:03Z</time>
      </trkpt>
      <trkpt lat="45.58561" lon="4.91163">
        <ele>216.0738906</ele>
        <time>2020-09-02T15:24:24Z</time>
      </trkpt>
      <trkpt lat="45.58643" lon="4.90802">
        <ele>213.9617892</ele>
        <time>2020-09-02T15:25:00Z</time>
      </trkpt>
      <trkpt lat="45.58618" lon="4.90377">
        <ele>214.0858632</ele>
        <time>2020-09-02T15:25:38Z</time>
      </trkpt>
      <trkpt lat="45.58622" lon="4.89781">
        <ele>213.2782771</ele>
        <time>2020-09-02T15:26:29Z</time>
      </trkpt>
      <trkpt lat="45.58585" lon="4.89538">
        <ele>212.4939437</ele>
        <time>2020-09-02T15:26:51Z</time>
      </trkpt>
      <trkpt lat="45.58447" lon="4.89106">
        <ele>211.3750515</ele>
        <time>2020-09-02T15:27:29Z</time>
      </trkpt>
      <trkpt lat="45.58324" lon="4.88614">
        <ele>218.1373925</ele>
        <time>2020-09-02T15:28:20Z</time>
      </trkpt>
      <trkpt lat="45.58453" lon="4.88331">
        <ele>223.6968766</ele>
        <time>2020-09-02T15:29:02Z</time>
      </trkpt>
      <trkpt lat="45.58592" lon="4.88078">
        <ele>235.5951776</ele>
        <time>2020-09-02T15:30:03Z</time>
      </trkpt>
      <trkpt lat="45.58552" lon="4.87826">
        <ele>239.3014458</ele>
        <time>2020-09-02T15:30:49Z</time>
      </trkpt>
      <trkpt lat="45.58574" lon="4.87624">
        <ele>244.0562785</ele>
        <time>2020-09-02T15:31:18Z</time>
      </trkpt>
      <trkpt lat="45.58547" lon="4.8727">
        <ele>251.6900539</ele>
        <time>2020-09-02T15:32:08Z</time>
      </trkpt>
      <trkpt lat="45.58571" lon="4.87097">
        <ele>255.9935324</ele>
        <time>2020-09-02T15:32:32Z</time>
      </trkpt>
      <trkpt lat="45.58595" lon="4.87036">
        <ele>258.3622973</ele>
        <time>2020-09-02T15:32:42Z</time>
      </trkpt>
      <trkpt lat="45.58668" lon="4.86977">
        <ele>260.515437</ele>
        <time>2020-09-02T15:32:59Z</time>
      </trkpt>
      <trkpt lat="45.58789" lon="4.86811">
        <ele>265.9247644</ele>
        <time>2020-09-02T15:33:33Z</time>
      </trkpt>
      <trkpt lat="45.5884" lon="4.86581">
        <ele>267.609454</ele>
        <time>2020-09-02T15:34:05Z</time>
      </trkpt>
      <trkpt lat="45.58962" lon="4.8636">
        <ele>268.5058305</ele>
        <time>2020-09-02T15:34:40Z</time>
      </trkpt>
      <trkpt lat="45.58971" lon="4.8611">
        <ele>266.8600375</ele>
        <time>2020-09-02T15:35:08Z</time>
      </trkpt>
      <trkpt lat="45.59195" lon="4.85852">
        <ele>256.7953678</ele>
        <time>2020-09-02T15:35:40Z</time>
      </trkpt>
      <trkpt lat="45.59363" lon="4.85478">
        <ele>248.7461309</ele>
        <time>2020-09-02T15:36:13Z</time>
      </trkpt>
      <trkpt lat="45.59465" lon="4.85372">
        <ele>245.4970178</ele>
        <time>2020-09-02T15:36:27Z</time>
      </trkpt>
      <trkpt lat="45.59563" lon="4.85309">
        <ele>241.727274</ele>
        <time>2020-09-02T15:36:39Z</time>
      </trkpt>
      <trkpt lat="45.59904" lon="4.85233">
        <ele>229.2188553</ele>
        <time>2020-09-02T15:37:14Z</time>
      </trkpt>
      <trkpt lat="45.59979" lon="4.85243">
        <ele>229.0381378</ele>
        <time>2020-09-02T15:37:24Z</time>
      </trkpt>
      <trkpt lat="45.60088" lon="4.85336">
        <ele>224.2553689</ele>
        <time>2020-09-02T15:37:38Z</time>
      </trkpt>
      <trkpt lat="45.60225" lon="4.85379">
        <ele>221.5785033</ele>
        <time>2020-09-02T15:37:54Z</time>
      </trkpt>
      <trkpt lat="45.60531" lon="4.85338">
        <ele>220.2820272</ele>
        <time>2020-09-02T15:38:34Z</time>
      </trkpt>
      <trkpt lat="45.60576" lon="4.85369">
        <ele>220.4131581</ele>
        <time>2020-09-02T15:38:42Z</time>
      </trkpt>
      <trkpt lat="45.60632" lon="4.85339">
        <ele>219.9418494</ele>
        <time>2020-09-02T15:38:51Z</time>
      </trkpt>
      <trkpt lat="45.61203" lon="4.85317">
        <ele>214.0932172</ele>
        <time>2020-09-02T15:40:00Z</time>
      </trkpt>
      <trkpt lat="45.61598" lon="4.85471">
        <ele>225.4772112</ele>
        <time>2020-09-02T15:41:17Z</time>
      </trkpt>
      <trkpt lat="45.61993" lon="4.85509">
        <ele>240.6547504</ele>
        <time>2020-09-02T15:42:46Z</time>
      </trkpt>
      <trkpt lat="45.62221" lon="4.85505">
        <ele>244.3422166</ele>
        <time>2020-09-02T15:43:31Z</time>
      </trkpt>
      <trkpt lat="45.62409" lon="4.85535">
        <ele>232.7221307</ele>
        <time>2020-09-02T15:43:53Z</time>
      </trkpt>
      <trkpt lat="45.62513" lon="4.85574">
        <ele>226.0119345</ele>
        <time>2020-09-02T15:44:01Z</time>
      </trkpt>
      <trkpt lat="45.62659" lon="4.8567">
        <ele>214.0483392</ele>
        <time>2020-09-02T15:44:11Z</time>
      </trkpt>
      <trkpt lat="45.62947" lon="4.85994">
        <ele>186.9558108</ele>
        <time>2020-09-02T15:44:33Z</time>
      </trkpt>
      <trkpt lat="45.63058" lon="4.86056">
        <ele>184.8255657</ele>
        <time>2020-09-02T15:44:41Z</time>
      </trkpt>
      <trkpt lat="45.63191" lon="4.86083">
        <ele>182.6839145</ele>
        <time>2020-09-02T15:44:52Z</time>
      </trkpt>
      <trkpt lat="45.63388" lon="4.86043">
        <ele>186.0957995</ele>
        <time>2020-09-02T15:45:20Z</time>
      </trkpt>
      <trkpt lat="45.63694" lon="4.85836">
        <ele>195.8280917</ele>
        <time>2020-09-02T15:46:35Z</time>
      </trkpt>
      <trkpt lat="45.6412" lon="4.85648">
        <ele>213.9863022</ele>
        <time>2020-09-02T15:48:30Z</time>
      </trkpt>
      <trkpt lat="45.64275" lon="4.85617">
        <ele>223.6277985</ele>
        <time>2020-09-02T15:49:20Z</time>
      </trkpt>
      <trkpt lat="45.65185" lon="4.85652">
        <ele>224.843149</ele>
        <time>2020-09-02T15:52:22Z</time>
      </trkpt>
      <trkpt lat="45.65691" lon="4.85705">
        <ele>213.1726903</ele>
        <time>2020-09-02T15:53:31Z</time>
      </trkpt>
      <trkpt lat="45.66106" lon="4.85769">
        <ele>192.433294</ele>
        <time>2020-09-02T15:54:13Z</time>
      </trkpt>
      <trkpt lat="45.66183" lon="4.85755">
        <ele>187.2680127</ele>
        <time>2020-09-02T15:54:19Z</time>
      </trkpt>
      <trkpt lat="45.66369" lon="4.85766">
        <ele>178.1849612</ele>
        <time>2020-09-02T15:54:51Z</time>
      </trkpt>
      <trkpt lat="45.66474" lon="4.85788">
        <ele>178.7076819</ele>
        <time>2020-09-02T15:55:12Z</time>
      </trkpt>
      <trkpt lat="45.66547" lon="4.85839">
        <ele>179.4379689</ele>
        <time>2020-09-02T15:55:26Z</time>
      </trkpt>
      <trkpt lat="45.66686" lon="4.85899">
        <ele>184.5438976</ele>
        <time>2020-09-02T15:56:08Z</time>
      </trkpt>
      <trkpt lat="45.67024" lon="4.86008">
        <ele>209.0405661</ele>
        <time>2020-09-02T15:58:01Z</time>
      </trkpt>
      <trkpt lat="45.6712" lon="4.85998">
        <ele>216.4933448</ele>
        <time>2020-09-02T15:58:34Z</time>
      </trkpt>
      <trkpt lat="45.67257" lon="4.86016">
        <ele>223.6068487</ele>
        <time>2020-09-02T15:59:26Z</time>
      </trkpt>
      <trkpt lat="45.67488" lon="4.86086">
        <ele>221.6317168</ele>
        <time>2020-09-02T16:00:31Z</time>
      </trkpt>
      <trkpt lat="45.68022" lon="4.8613">
        <ele>201.6065152</ele>
        <time>2020-09-02T16:01:37Z</time>
      </trkpt>
      <trkpt lat="45.68203" lon="4.86168">
        <ele>197.3871277</ele>
        <time>2020-09-02T16:01:59Z</time>
      </trkpt>
      <trkpt lat="45.6852" lon="4.86115">
        <ele>193.2994924</ele>
        <time>2020-09-02T16:02:58Z</time>
      </trkpt>
      <trkpt lat="45.68554" lon="4.8613">
        <ele>193.1396612</ele>
        <time>2020-09-02T16:03:04Z</time>
      </trkpt>
      <trkpt lat="45.6859" lon="4.86112">
        <ele>193.2104809</ele>
        <time>2020-09-02T16:03:10Z</time>
      </trkpt>
      <trkpt lat="45.68653" lon="4.86121">
        <ele>193.086092</ele>
        <time>2020-09-02T16:03:20Z</time>
      </trkpt>
      <trkpt lat="45.6869" lon="4.86163">
        <ele>192.2765652</ele>
        <time>2020-09-02T16:03:28Z</time>
      </trkpt>
      <trkpt lat="45.68716" lon="4.86152">
        <ele>192.5578319</ele>
        <time>2020-09-02T16:03:32Z</time>
      </trkpt>
      <trkpt lat="45.68947" lon="4.8618">
        <ele>196.2926421</ele>
        <time>2020-09-02T16:04:05Z</time>
      </trkpt>
      <trkpt lat="45.69082" lon="4.86161">
        <ele>200.0202461</ele>
        <time>2020-09-02T16:04:31Z</time>
      </trkpt>
      <trkpt lat="45.69313" lon="4.86022">
        <ele>201.6036902</ele>
        <time>2020-09-02T16:05:12Z</time>
      </trkpt>
      <trkpt lat="45.69802" lon="4.85795">
        <ele>208.6417676</ele>
        <time>2020-09-02T16:06:39Z</time>
      </trkpt>
      <trkpt lat="45.69979" lon="4.85671">
        <ele>202.2353902</ele>
        <time>2020-09-02T16:07:03Z</time>
      </trkpt>
      <trkpt lat="45.70201" lon="4.85552">
        <ele>192.9300747</ele>
        <time>2020-09-02T16:07:27Z</time>
      </trkpt>
      <trkpt lat="45.70263" lon="4.85567">
        <ele>190.5689007</ele>
        <time>2020-09-02T16:07:33Z</time>
      </trkpt>
      <trkpt lat="45.70473" lon="4.85693">
        <ele>181.9767084</ele>
        <time>2020-09-02T16:07:55Z</time>
      </trkpt>
      <trkpt lat="45.70541" lon="4.85664">
        <ele>179.7785115</ele>
        <time>2020-09-02T16:08:02Z</time>
      </trkpt>
      <trkpt lat="45.70603" lon="4.85557">
        <ele>176.2663106</ele>
        <time>2020-09-02T16:08:12Z</time>
      </trkpt>
      <trkpt lat="45.70635" lon="4.85544">
        <ele>174.3525858</ele>
        <time>2020-09-02T16:08:16Z</time>
      </trkpt>
      <trkpt lat="45.71243" lon="4.85526">
        <ele>173.7736723</ele>
        <time>2020-09-02T16:10:09Z</time>
      </trkpt>
      <trkpt lat="45.71593" lon="4.85493">
        <ele>175.3837028</ele>
        <time>2020-09-02T16:11:08Z</time>
      </trkpt>
      <trkpt lat="45.71649" lon="4.85503">
        <ele>173.1522811</ele>
        <time>2020-09-02T16:11:20Z</time>
      </trkpt>
      <trkpt lat="45.71954" lon="4.85452">
        <ele>172.4801561</ele>
        <time>2020-09-02T16:13:03Z</time>
      </trkpt>
      <trkpt lat="45.72728" lon="4.85399">
        <ele>171.3221167</ele>
        <time>2020-09-02T16:14:44Z</time>
      </trkpt>
      <trkpt lat="45.72788" lon="4.85644">
        <ele>170.7072097</ele>
        <time>2020-09-02T16:15:14Z</time>
      </trkpt>
      <trkpt lat="45.72705" lon="4.85611">
        <ele>171.302665</ele>
        <time>2020-09-02T16:16:13Z</time>
      </trkpt>
    </trkseg>
  </trk>
</gpx>